PWSweather.com
Personal Weather Stations
Station Observations
KMAMEDFI2
Medfield, MA 02052

Medfield, MA 02052

Lat: 42.1900822, Lon: -71.3296889

Elevation: 138

Station Type: Rainwise WS MK-III

http://www.medfieldweather.com

High Low Average
Temperature 31.8°F-0.1°C 13.7°F-10.2°C 21.7°F-5.7°C
Dew Point 22.8°F-5.1°C 12.0°F-11.1°C 16.4°F-8.7°C
Winds 5.8 mph 9.3 kmh Calm Calm 2.0 mph SW3.2 kmh SW
Wind Gusts 10.4 mph16.7 kmh -- 3.0 mph4.8 kmh
Humidity 93% 65% 80%
Pressure 30.27 in1025.1 mb 30.00 in1015.9 mb -
Precipitation 0.00 in0.0 mm - -
Hour Temp Dew Point Humidity Winds Wind Gusts Pressure Precip Precip Rate Daily Precip Total
12:00 AM 20.6°F-6.3°C 16.5°F-8.6°C 84% Calm Calm 2.3 mph3.7 kmh 30.29 in1025.7 mb - 0.00 in0.0 mm 0.00 in0.0 mm
12:10 AM 20.7°F-6.3°C 16.4°F-8.7°C 83% 1.2 mph W1.9 kmh W 1.2 mph1.9 kmh 30.29 in1025.7 mb - 0.00 in0.0 mm 0.00 in0.0 mm
12:20 AM 20.8°F-6.2°C 16.5°F-8.6°C 83% 2.3 mph WNW3.7 kmh WNW 2.3 mph3.7 kmh 30.29 in1025.7 mb - 0.00 in0.0 mm 0.00 in0.0 mm
12:30 AM 20.8°F-6.2°C 16.5°F-8.6°C 83% 1.2 mph WNW1.9 kmh WNW 2.3 mph3.7 kmh 30.28 in1025.4 mb - 0.00 in0.0 mm 0.00 in0.0 mm
12:40 AM 20.9°F-6.2°C 16.8°F-8.4°C 84% 2.3 mph W3.7 kmh W 2.3 mph3.7 kmh 30.28 in1025.4 mb - 0.00 in0.0 mm 0.00 in0.0 mm
12:50 AM 21.1°F-6.1°C 16.5°F-8.6°C 82% 2.3 mph NNE3.7 kmh NNE 1.2 mph1.9 kmh 30.27 in1025.1 mb - 0.00 in0.0 mm 0.00 in0.0 mm
01:00 AM 21.2°F-6.0°C 16.8°F-8.4°C 83% Calm Calm 2.3 mph3.7 kmh 30.27 in1025.1 mb - 0.00 in0.0 mm 0.00 in0.0 mm
01:10 AM 21.3°F-5.9°C 16.7°F-8.5°C 82% Calm Calm 2.3 mph3.7 kmh 30.27 in1025.1 mb - 0.00 in0.0 mm 0.00 in0.0 mm
01:20 AM 21.4°F-5.9°C 16.5°F-8.6°C 81% 1.2 mph WSW1.9 kmh WSW 2.3 mph3.7 kmh 30.26 in1024.7 mb - 0.00 in0.0 mm 0.00 in0.0 mm
01:30 AM 21.5°F-5.8°C 16.6°F-8.6°C 81% Calm Calm 1.2 mph1.9 kmh 30.26 in1024.7 mb - 0.00 in0.0 mm 0.00 in0.0 mm
01:40 AM 21.5°F-5.8°C 16.6°F-8.6°C 81% 1.2 mph NW1.9 kmh NW 1.2 mph1.9 kmh 30.26 in1024.7 mb - 0.00 in0.0 mm 0.00 in0.0 mm
01:50 AM 21.5°F-5.8°C 16.6°F-8.6°C 81% 1.2 mph NNW1.9 kmh NNW 1.2 mph1.9 kmh 30.25 in1024.4 mb - 0.00 in0.0 mm 0.00 in0.0 mm
02:00 AM 21.5°F-5.8°C 16.3°F-8.7°C 80% 2.3 mph NNW3.7 kmh NNW 2.3 mph3.7 kmh 30.25 in1024.4 mb - 0.00 in0.0 mm 0.00 in0.0 mm
02:10 AM 21.4°F-5.9°C 16.2°F-8.8°C 80% 2.3 mph SW3.7 kmh SW 6.9 mph11.1 kmh 30.25 in1024.4 mb - 0.00 in0.0 mm 0.00 in0.0 mm
02:20 AM 21.3°F-5.9°C 16.1°F-8.8°C 80% 2.3 mph WNW3.7 kmh WNW 2.3 mph3.7 kmh 30.25 in1024.4 mb - 0.00 in0.0 mm 0.00 in0.0 mm
02:30 AM 21.3°F-5.9°C 16.4°F-8.7°C 81% 1.2 mph E1.9 kmh E 2.3 mph3.7 kmh 30.25 in1024.4 mb - 0.00 in0.0 mm 0.00 in0.0 mm
02:40 AM 21.3°F-5.9°C 16.4°F-8.7°C 81% 2.3 mph SE3.7 kmh SE 2.3 mph3.7 kmh 30.26 in1024.7 mb - 0.00 in0.0 mm 0.00 in0.0 mm
02:50 AM 21.2°F-6.0°C 16.3°F-8.7°C 81% 2.3 mph NW3.7 kmh NW 3.5 mph5.6 kmh 30.26 in1024.7 mb - 0.00 in0.0 mm 0.00 in0.0 mm
03:00 AM 21.1°F-6.1°C 15.9°F-8.9°C 80% 2.3 mph NNE3.7 kmh NNE 6.9 mph11.1 kmh 30.26 in1024.7 mb - 0.00 in0.0 mm 0.00 in0.0 mm
03:10 AM 20.9°F-6.2°C 16.0°F-8.9°C 81% 1.2 mph E1.9 kmh E 2.3 mph3.7 kmh 30.27 in1025.1 mb - 0.00 in0.0 mm 0.00 in0.0 mm
03:20 AM 20.9°F-6.2°C 16.0°F-8.9°C 81% 1.2 mph SSE1.9 kmh SSE 2.3 mph3.7 kmh 30.27 in1025.1 mb - 0.00 in0.0 mm 0.00 in0.0 mm
03:30 AM 20.9°F-6.2°C 15.7°F-9.1°C 80% 2.3 mph NW3.7 kmh NW 2.3 mph3.7 kmh 30.26 in1024.7 mb - 0.00 in0.0 mm 0.00 in0.0 mm
03:40 AM 20.7°F-6.3°C 15.8°F-9.0°C 81% 2.3 mph N3.7 kmh N 2.3 mph3.7 kmh 30.26 in1024.7 mb - 0.00 in0.0 mm 0.00 in0.0 mm
03:50 AM 20.6°F-6.3°C 15.5°F-9.2°C 80% 4.6 mph NW7.4 kmh NW 5.8 mph9.3 kmh 30.25 in1024.4 mb - 0.00 in0.0 mm 0.00 in0.0 mm
04:00 AM 20.5°F-6.4°C 15.4°F-9.2°C 80% 1.2 mph NNE1.9 kmh NNE 1.2 mph1.9 kmh 30.25 in1024.4 mb - 0.00 in0.0 mm 0.00 in0.0 mm
04:10 AM 20.5°F-6.4°C 15.3°F-9.3°C 80% 2.3 mph SSE3.7 kmh SSE 2.3 mph3.7 kmh 30.25 in1024.4 mb - 0.00 in0.0 mm 0.00 in0.0 mm
04:20 AM 20.5°F-6.4°C 15.6°F-9.1°C 81% 2.3 mph NE3.7 kmh NE 2.3 mph3.7 kmh 30.24 in1024.0 mb - 0.00 in0.0 mm 0.00 in0.0 mm
04:30 AM 20.5°F-6.4°C 15.3°F-9.3°C 80% 1.2 mph NNW1.9 kmh NNW 1.2 mph1.9 kmh 30.24 in1024.0 mb - 0.00 in0.0 mm 0.00 in0.0 mm
04:40 AM 20.4°F-6.4°C 15.2°F-9.3°C 80% 2.3 mph N3.7 kmh N 5.8 mph9.3 kmh 30.23 in1023.7 mb - 0.00 in0.0 mm 0.00 in0.0 mm
04:50 AM 20.4°F-6.4°C 14.9°F-9.5°C 79% 2.3 mph N3.7 kmh N 2.3 mph3.7 kmh 30.23 in1023.7 mb - 0.00 in0.0 mm 0.00 in0.0 mm
05:00 AM 20.4°F-6.4°C 14.9°F-9.5°C 79% 2.3 mph NNE3.7 kmh NNE 2.3 mph3.7 kmh 30.22 in1023.4 mb - 0.00 in0.0 mm 0.00 in0.0 mm
05:10 AM 20.4°F-6.4°C 15.2°F-9.3°C 80% 3.5 mph ENE5.6 kmh ENE 8.1 mph13.0 kmh 30.22 in1023.4 mb - 0.00 in0.0 mm 0.00 in0.0 mm
05:20 AM 20.3°F-6.5°C 14.8°F-9.6°C 79% 2.3 mph NE3.7 kmh NE 3.5 mph5.6 kmh 30.22 in1023.4 mb - 0.00 in0.0 mm 0.00 in0.0 mm
05:30 AM 20.3°F-6.5°C 14.8°F-9.6°C 79% 3.5 mph SE5.6 kmh SE 2.3 mph3.7 kmh 30.21 in1023.0 mb - 0.00 in0.0 mm 0.00 in0.0 mm
05:40 AM 20.2°F-6.6°C 14.7°F-9.6°C 79% 2.3 mph N3.7 kmh N 6.9 mph11.1 kmh 30.21 in1023.0 mb - 0.00 in0.0 mm 0.00 in0.0 mm
05:50 AM 20.3°F-6.5°C 14.8°F-9.6°C 79% 1.2 mph N1.9 kmh N 2.3 mph3.7 kmh 30.21 in1023.0 mb - 0.00 in0.0 mm 0.00 in0.0 mm
06:00 AM 20.2°F-6.6°C 14.4°F-9.8°C 78% 1.2 mph WNW1.9 kmh WNW 5.8 mph9.3 kmh 30.20 in1022.7 mb - 0.00 in0.0 mm 0.00 in0.0 mm
06:10 AM 20.2°F-6.6°C 14.7°F-9.6°C 79% Calm Calm 2.3 mph3.7 kmh 30.20 in1022.7 mb - 0.00 in0.0 mm 0.00 in0.0 mm
06:20 AM 20.2°F-6.6°C 14.7°F-9.6°C 79% 1.2 mph SSW1.9 kmh SSW 8.1 mph13.0 kmh 30.20 in1022.7 mb - 0.00 in0.0 mm 0.00 in0.0 mm
06:30 AM 20.3°F-6.5°C 14.8°F-9.6°C 79% Calm Calm -- 30.20 in1022.7 mb - 0.00 in0.0 mm 0.00 in0.0 mm
06:40 AM 20.2°F-6.6°C 14.7°F-9.6°C 79% 1.2 mph SSW1.9 kmh SSW 2.3 mph3.7 kmh 30.20 in1022.7 mb - 0.00 in0.0 mm 0.00 in0.0 mm
06:50 AM 20.2°F-6.6°C 14.7°F-9.6°C 79% 3.5 mph NW5.6 kmh NW 2.3 mph3.7 kmh 30.20 in1022.7 mb - 0.00 in0.0 mm 0.00 in0.0 mm
07:00 AM 20.3°F-6.5°C 14.8°F-9.6°C 79% 3.5 mph WNW5.6 kmh WNW 5.8 mph9.3 kmh 30.20 in1022.7 mb - 0.00 in0.0 mm 0.00 in0.0 mm
07:10 AM 20.3°F-6.5°C 14.8°F-9.6°C 79% 2.3 mph WSW3.7 kmh WSW 2.3 mph3.7 kmh 30.20 in1022.7 mb - 0.00 in0.0 mm 0.00 in0.0 mm
07:20 AM 20.2°F-6.6°C 14.7°F-9.6°C 79% 2.3 mph SSW3.7 kmh SSW 2.3 mph3.7 kmh 30.20 in1022.7 mb - 0.00 in0.0 mm 0.00 in0.0 mm
07:30 AM 20.1°F-6.6°C 14.9°F-9.5°C 80% 2.3 mph WNW3.7 kmh WNW 5.8 mph9.3 kmh 30.21 in1023.0 mb - 0.00 in0.0 mm 0.00 in0.0 mm
07:40 AM 20.2°F-6.6°C 15.0°F-9.4°C 80% 4.6 mph ENE7.4 kmh ENE 6.9 mph11.1 kmh 30.20 in1022.7 mb - 0.00 in0.0 mm 0.00 in0.0 mm
07:50 AM 20.1°F-6.6°C 14.9°F-9.5°C 80% Calm Calm 1.2 mph1.9 kmh 30.21 in1023.0 mb - 0.00 in0.0 mm 0.00 in0.0 mm
08:00 AM 20.0°F-6.7°C 15.1°F-9.4°C 81% Calm Calm 10.4 mph16.7 kmh 30.21 in1023.0 mb - 0.00 in0.0 mm 0.00 in0.0 mm
08:10 AM 20.1°F-6.6°C 15.2°F-9.3°C 81% 1.2 mph NW1.9 kmh NW 2.3 mph3.7 kmh 30.21 in1023.0 mb - 0.00 in0.0 mm 0.00 in0.0 mm
08:20 AM 20.1°F-6.6°C 15.2°F-9.3°C 81% 2.3 mph E3.7 kmh E 2.3 mph3.7 kmh 30.21 in1023.0 mb - 0.00 in0.0 mm 0.00 in0.0 mm
08:30 AM 20.1°F-6.6°C 15.5°F-9.2°C 82% 2.3 mph ESE3.7 kmh ESE 5.8 mph9.3 kmh 30.21 in1023.0 mb - 0.00 in0.0 mm 0.00 in0.0 mm
08:40 AM 20.2°F-6.6°C 15.3°F-9.3°C 81% 2.3 mph NE3.7 kmh NE 2.3 mph3.7 kmh 30.21 in1023.0 mb - 0.00 in0.0 mm 0.00 in0.0 mm
08:50 AM 20.2°F-6.6°C 15.6°F-9.1°C 82% 1.2 mph E1.9 kmh E 1.2 mph1.9 kmh 30.21 in1023.0 mb - 0.00 in0.0 mm 0.00 in0.0 mm
09:00 AM 20.2°F-6.6°C 15.3°F-9.3°C 81% 2.3 mph W3.7 kmh W 2.3 mph3.7 kmh 30.21 in1023.0 mb - 0.00 in0.0 mm 0.00 in0.0 mm
09:10 AM 20.2°F-6.6°C 15.3°F-9.3°C 81% 2.3 mph NW3.7 kmh NW 5.8 mph9.3 kmh 30.22 in1023.4 mb - 0.00 in0.0 mm 0.00 in0.0 mm
09:20 AM 20.3°F-6.5°C 15.1°F-9.4°C 80% 1.2 mph NE1.9 kmh NE 1.2 mph1.9 kmh 30.22 in1023.4 mb - 0.00 in0.0 mm 0.00 in0.0 mm
09:30 AM 20.5°F-6.4°C 15.6°F-9.1°C 81% 1.2 mph E1.9 kmh E 2.3 mph3.7 kmh 30.22 in1023.4 mb - 0.00 in0.0 mm 0.00 in0.0 mm
09:40 AM 20.7°F-6.3°C 15.5°F-9.2°C 80% 5.8 mph NW9.3 kmh NW 8.1 mph13.0 kmh 30.22 in1023.4 mb - 0.00 in0.0 mm 0.00 in0.0 mm
09:50 AM 20.9°F-6.2°C 15.7°F-9.1°C 80% 3.5 mph NW5.6 kmh NW 8.1 mph13.0 kmh 30.22 in1023.4 mb - 0.00 in0.0 mm 0.00 in0.0 mm
10:00 AM 20.9°F-6.2°C 15.4°F-9.2°C 79% 2.3 mph W3.7 kmh W 2.3 mph3.7 kmh 30.23 in1023.7 mb - 0.00 in0.0 mm 0.00 in0.0 mm
10:10 AM 20.9°F-6.2°C 15.7°F-9.1°C 80% 2.3 mph E3.7 kmh E 2.3 mph3.7 kmh 30.23 in1023.7 mb - 0.00 in0.0 mm 0.00 in0.0 mm
10:20 AM 21.1°F-6.1°C 15.6°F-9.1°C 79% 3.5 mph E5.6 kmh E 2.3 mph3.7 kmh 30.23 in1023.7 mb - 0.00 in0.0 mm 0.00 in0.0 mm
10:30 AM 21.3°F-5.9°C 15.8°F-9.0°C 79% 2.3 mph E3.7 kmh E 5.8 mph9.3 kmh 30.23 in1023.7 mb - 0.00 in0.0 mm 0.00 in0.0 mm
10:40 AM 21.2°F-6.0°C 16.0°F-8.9°C 80% 3.5 mph E5.6 kmh E 5.8 mph9.3 kmh 30.23 in1023.7 mb - 0.00 in0.0 mm 0.00 in0.0 mm
10:50 AM 21.5°F-5.8°C 16.0°F-8.9°C 79% 2.3 mph NE3.7 kmh NE 2.3 mph3.7 kmh 30.22 in1023.4 mb - 0.00 in0.0 mm 0.00 in0.0 mm
11:00 AM 21.9°F-5.6°C 16.4°F-8.7°C 79% 3.5 mph E5.6 kmh E 8.1 mph13.0 kmh 30.22 in1023.4 mb - 0.00 in0.0 mm 0.00 in0.0 mm
11:10 AM 22.1°F-5.5°C 16.3°F-8.7°C 78% 3.5 mph NW5.6 kmh NW 9.2 mph14.8 kmh 30.22 in1023.4 mb - 0.00 in0.0 mm 0.00 in0.0 mm
11:20 AM 22.3°F-5.4°C 16.5°F-8.6°C 78% 3.5 mph E5.6 kmh E 9.2 mph14.8 kmh 30.21 in1023.0 mb - 0.00 in0.0 mm 0.00 in0.0 mm
11:30 AM 22.8°F-5.1°C 17.0°F-8.3°C 78% 2.3 mph NE3.7 kmh NE 2.3 mph3.7 kmh 30.21 in1023.0 mb - 0.00 in0.0 mm 0.00 in0.0 mm
11:40 AM 23.5°F-4.7°C 17.3°F-8.2°C 77% 3.5 mph WNW5.6 kmh WNW 6.9 mph11.1 kmh 30.20 in1022.7 mb - 0.00 in0.0 mm 0.00 in0.0 mm
11:50 AM 23.8°F-4.6°C 17.3°F-8.2°C 76% 1.2 mph SW1.9 kmh SW 2.3 mph3.7 kmh 30.20 in1022.7 mb - 0.00 in0.0 mm 0.00 in0.0 mm
12:00 PM 24.2°F-4.3°C 17.7°F-7.9°C 76% 2.3 mph NNE3.7 kmh NNE 3.5 mph5.6 kmh 30.20 in1022.7 mb - 0.00 in0.0 mm 0.00 in0.0 mm
12:10 PM 24.8°F-4.0°C 18.0°F-7.8°C 75% 2.3 mph W3.7 kmh W 3.5 mph5.6 kmh 30.19 in1022.4 mb - 0.00 in0.0 mm 0.00 in0.0 mm
12:20 PM 25.1°F-3.8°C 18.3°F-7.6°C 75% 2.3 mph SW3.7 kmh SW 2.3 mph3.7 kmh 30.18 in1022.0 mb - 0.00 in0.0 mm 0.00 in0.0 mm
12:30 PM 25.8°F-3.4°C 18.3°F-7.6°C 73% 3.5 mph W5.6 kmh W 8.1 mph13.0 kmh 30.18 in1022.0 mb - 0.00 in0.0 mm 0.00 in0.0 mm
12:40 PM 26.5°F-3.1°C 19.3°F-7.1°C 74% 4.6 mph W7.4 kmh W 6.9 mph11.1 kmh 30.16 in1021.3 mb - 0.00 in0.0 mm 0.00 in0.0 mm
12:50 PM 27.1°F-2.7°C 19.3°F-7.1°C 72% 2.3 mph NW3.7 kmh NW 6.9 mph11.1 kmh 30.15 in1021.0 mb - 0.00 in0.0 mm 0.00 in0.0 mm
01:00 PM 27.8°F-2.3°C 20.3°F-6.5°C 73% 3.5 mph ESE5.6 kmh ESE 8.1 mph13.0 kmh 30.15 in1021.0 mb - 0.00 in0.0 mm 0.00 in0.0 mm
01:10 PM 28.5°F-1.9°C 20.6°F-6.3°C 72% 3.5 mph S5.6 kmh S 5.8 mph9.3 kmh 30.15 in1021.0 mb - 0.00 in0.0 mm 0.00 in0.0 mm
01:20 PM 28.7°F-1.8°C 21.1°F-6.1°C 73% 3.5 mph E5.6 kmh E 3.5 mph5.6 kmh 30.15 in1021.0 mb - 0.00 in0.0 mm 0.00 in0.0 mm
01:30 PM 29.3°F-1.5°C 21.4°F-5.9°C 72% 2.3 mph ENE3.7 kmh ENE 3.5 mph5.6 kmh 30.14 in1020.7 mb - 0.00 in0.0 mm 0.00 in0.0 mm
01:40 PM 30.4°F-0.9°C 22.4°F-5.3°C 72% 2.3 mph NE3.7 kmh NE 2.3 mph3.7 kmh 30.14 in1020.7 mb - 0.00 in0.0 mm 0.00 in0.0 mm
01:50 PM 30.2°F-1.0°C 22.3°F-5.4°C 72% 3.5 mph E5.6 kmh E 3.5 mph5.6 kmh 30.14 in1020.7 mb - 0.00 in0.0 mm 0.00 in0.0 mm
02:00 PM 30.5°F-0.8°C 22.5°F-5.3°C 72% 3.5 mph SE5.6 kmh SE 2.3 mph3.7 kmh 30.13 in1020.3 mb - 0.00 in0.0 mm 0.00 in0.0 mm
02:10 PM 30.5°F-0.8°C 22.6°F-5.2°C 72% 3.5 mph E5.6 kmh E 6.9 mph11.1 kmh 30.13 in1020.3 mb - 0.00 in0.0 mm 0.00 in0.0 mm
02:20 PM 30.6°F-0.8°C 22.6°F-5.2°C 72% 3.5 mph E5.6 kmh E 2.3 mph3.7 kmh 30.13 in1020.3 mb - 0.00 in0.0 mm 0.00 in0.0 mm
02:30 PM 31.4°F-0.3°C 22.7°F-5.2°C 70% 5.8 mph E9.3 kmh E 8.1 mph13.0 kmh 30.13 in1020.3 mb - 0.00 in0.0 mm 0.00 in0.0 mm
02:40 PM 30.8°F-0.7°C 22.2°F-5.4°C 70% 3.5 mph WSW5.6 kmh WSW 5.8 mph9.3 kmh 30.13 in1020.3 mb - 0.00 in0.0 mm 0.00 in0.0 mm
02:50 PM 30.6°F-0.8°C 22.3°F-5.4°C 71% 3.5 mph WSW5.6 kmh WSW 2.3 mph3.7 kmh 30.13 in1020.3 mb - 0.00 in0.0 mm 0.00 in0.0 mm
03:00 PM 31.7°F-0.2°C 22.4°F-5.3°C 68% 3.5 mph E5.6 kmh E 3.5 mph5.6 kmh 30.13 in1020.3 mb - 0.00 in0.0 mm 0.00 in0.0 mm
03:10 PM 30.7°F-0.7°C 22.1°F-5.5°C 70% 3.5 mph WNW5.6 kmh WNW 5.8 mph9.3 kmh 30.13 in1020.3 mb - 0.00 in0.0 mm 0.00 in0.0 mm
03:20 PM 31.8°F-0.1°C 22.8°F-5.1°C 69% 2.3 mph NNE3.7 kmh NNE 8.1 mph13.0 kmh 30.13 in1020.3 mb - 0.00 in0.0 mm 0.00 in0.0 mm
03:30 PM 31.4°F-0.3°C 22.1°F-5.5°C 68% 2.3 mph SE3.7 kmh SE 2.3 mph3.7 kmh 30.12 in1020.0 mb - 0.00 in0.0 mm 0.00 in0.0 mm
03:40 PM 30.1°F-1.1°C 21.9°F-5.6°C 71% 2.3 mph E3.7 kmh E 2.3 mph3.7 kmh 30.12 in1020.0 mb - 0.00 in0.0 mm 0.00 in0.0 mm
03:50 PM 29.7°F-1.3°C 21.8°F-5.7°C 72% 2.3 mph SW3.7 kmh SW 2.3 mph3.7 kmh 30.11 in1019.6 mb - 0.00 in0.0 mm 0.00 in0.0 mm
04:00 PM 29.5°F-1.4°C 21.3°F-5.9°C 71% 4.6 mph NNW7.4 kmh NNW 2.3 mph3.7 kmh 30.11 in1019.6 mb - 0.00 in0.0 mm 0.00 in0.0 mm
04:10 PM 29.4°F-1.4°C 21.2°F-6.0°C 71% Calm Calm 2.3 mph3.7 kmh 30.10 in1019.3 mb - 0.00 in0.0 mm 0.00 in0.0 mm
04:20 PM 29.5°F-1.4°C 20.9°F-6.2°C 70% 3.5 mph SE5.6 kmh SE 2.3 mph3.7 kmh 30.10 in1019.3 mb - 0.00 in0.0 mm 0.00 in0.0 mm
04:30 PM 29.1°F-1.6°C 20.6°F-6.3°C 70% Calm Calm -- 30.09 in1019.0 mb - 0.00 in0.0 mm 0.00 in0.0 mm
04:40 PM 28.8°F-1.8°C 19.9°F-6.7°C 69% 2.3 mph N3.7 kmh N 2.3 mph3.7 kmh 30.09 in1019.0 mb - 0.00 in0.0 mm 0.00 in0.0 mm
04:50 PM 28.6°F-1.9°C 19.1°F-7.2°C 67% 1.2 mph ENE1.9 kmh ENE 1.2 mph1.9 kmh 30.08 in1018.6 mb - 0.00 in0.0 mm 0.00 in0.0 mm
05:00 PM 28.2°F-2.1°C 19.0°F-7.2°C 68% Calm Calm -- 30.08 in1018.6 mb - 0.00 in0.0 mm 0.00 in0.0 mm
05:10 PM 27.9°F-2.3°C 18.0°F-7.8°C 66% 2.3 mph E3.7 kmh E 1.2 mph1.9 kmh 30.08 in1018.6 mb - 0.00 in0.0 mm 0.00 in0.0 mm
05:20 PM 27.3°F-2.6°C 17.1°F-8.3°C 65% Calm Calm 1.2 mph1.9 kmh 30.08 in1018.6 mb - 0.00 in0.0 mm 0.00 in0.0 mm
05:30 PM 26.5°F-3.1°C 17.7°F-7.9°C 69% 1.2 mph N1.9 kmh N 1.2 mph1.9 kmh 30.07 in1018.3 mb - 0.00 in0.0 mm 0.00 in0.0 mm
05:40 PM 25.7°F-3.5°C 16.6°F-8.6°C 68% Calm Calm -- 30.08 in1018.6 mb - 0.00 in0.0 mm 0.00 in0.0 mm
05:50 PM 24.3°F-4.3°C 15.9°F-8.9°C 70% Calm Calm -- 30.08 in1018.6 mb - 0.00 in0.0 mm 0.00 in0.0 mm
06:00 PM 23.3°F-4.8°C 15.3°F-9.3°C 71% Calm Calm -- 30.07 in1018.3 mb - 0.00 in0.0 mm 0.00 in0.0 mm
06:10 PM 22.4°F-5.3°C 15.1°F-9.4°C 73% Calm Calm -- 30.07 in1018.3 mb - 0.00 in0.0 mm 0.00 in0.0 mm
06:20 PM 22.5°F-5.3°C 16.4°F-8.7°C 77% Calm Calm -- 30.06 in1017.9 mb - 0.00 in0.0 mm 0.00 in0.0 mm
06:30 PM 22.4°F-5.3°C 16.3°F-8.7°C 77% Calm Calm -- 30.06 in1017.9 mb - 0.00 in0.0 mm 0.00 in0.0 mm
06:40 PM 21.8°F-5.7°C 15.7°F-9.1°C 77% Calm Calm -- 30.06 in1017.9 mb - 0.00 in0.0 mm 0.00 in0.0 mm
06:50 PM 21.9°F-5.6°C 15.8°F-9.0°C 77% Calm Calm -- 30.06 in1017.9 mb - 0.00 in0.0 mm 0.00 in0.0 mm
07:00 PM 21.6°F-5.8°C 15.8°F-9.0°C 78% Calm Calm -- 30.06 in1017.9 mb - 0.00 in0.0 mm 0.00 in0.0 mm
07:10 PM 20.3°F-6.5°C 15.1°F-9.4°C 80% Calm Calm -- 30.07 in1018.3 mb - 0.00 in0.0 mm 0.00 in0.0 mm
07:20 PM 19.3°F-7.1°C 15.6°F-9.1°C 85% Calm Calm -- 30.07 in1018.3 mb - 0.00 in0.0 mm 0.00 in0.0 mm
07:30 PM 18.8°F-7.3°C 15.3°F-9.3°C 86% Calm Calm -- 30.06 in1017.9 mb - 0.00 in0.0 mm 0.00 in0.0 mm
07:40 PM 18.7°F-7.4°C 15.2°F-9.3°C 86% Calm Calm -- 30.06 in1017.9 mb - 0.00 in0.0 mm 0.00 in0.0 mm
07:50 PM 18.5°F-7.5°C 15.3°F-9.3°C 87% Calm Calm -- 30.06 in1017.9 mb - 0.00 in0.0 mm 0.00 in0.0 mm
08:00 PM 18.2°F-7.7°C 15.0°F-9.4°C 87% Calm Calm -- 30.05 in1017.6 mb - 0.00 in0.0 mm 0.00 in0.0 mm
08:10 PM 17.7°F-7.9°C 14.5°F-9.7°C 87% Calm Calm -- 30.05 in1017.6 mb - 0.00 in0.0 mm 0.00 in0.0 mm
08:20 PM 18.0°F-7.8°C 15.3°F-9.3°C 89% Calm Calm -- 30.05 in1017.6 mb - 0.00 in0.0 mm 0.00 in0.0 mm
08:30 PM 17.6°F-8.0°C 14.6°F-9.7°C 88% Calm Calm -- 30.05 in1017.6 mb - 0.00 in0.0 mm 0.00 in0.0 mm
08:40 PM 16.8°F-8.4°C 14.4°F-9.8°C 90% Calm Calm -- 30.04 in1017.3 mb - 0.00 in0.0 mm 0.00 in0.0 mm
08:50 PM 16.0°F-8.9°C 14.1°F-9.9°C 92% Calm Calm -- 30.05 in1017.6 mb - 0.00 in0.0 mm 0.00 in0.0 mm
09:00 PM 16.0°F-8.9°C 14.3°F-9.8°C 93% Calm Calm -- 30.04 in1017.3 mb - 0.00 in0.0 mm 0.00 in0.0 mm
09:10 PM 15.6°F-9.1°C 13.9°F-10.1°C 93% Calm Calm -- 30.04 in1017.3 mb - 0.00 in0.0 mm 0.00 in0.0 mm
09:20 PM 15.5°F-9.2°C 13.9°F-10.1°C 93% Calm Calm -- 30.04 in1017.3 mb - 0.00 in0.0 mm 0.00 in0.0 mm
09:30 PM 14.8°F-9.6°C 13.2°F-10.4°C 93% Calm Calm -- 30.04 in1017.3 mb - 0.00 in0.0 mm 0.00 in0.0 mm
09:40 PM 14.9°F-9.5°C 13.2°F-10.4°C 93% Calm Calm -- 30.04 in1017.3 mb - 0.00 in0.0 mm 0.00 in0.0 mm
09:50 PM 14.8°F-9.6°C 13.2°F-10.4°C 93% Calm Calm -- 30.04 in1017.3 mb - 0.00 in0.0 mm 0.00 in0.0 mm
10:00 PM 15.6°F-9.1°C 14.0°F-10.0°C 93% Calm Calm -- 30.04 in1017.3 mb - 0.00 in0.0 mm 0.00 in0.0 mm
10:10 PM 15.9°F-8.9°C 14.2°F-9.9°C 93% Calm Calm -- 30.04 in1017.3 mb - 0.00 in0.0 mm 0.00 in0.0 mm
10:20 PM 15.8°F-9.0°C 14.2°F-9.9°C 93% Calm Calm -- 30.04 in1017.3 mb - 0.00 in0.0 mm 0.00 in0.0 mm
10:30 PM 15.3°F-9.3°C 13.6°F-10.2°C 93% Calm Calm -- 30.04 in1017.3 mb - 0.00 in0.0 mm 0.00 in0.0 mm
10:40 PM 14.8°F-9.6°C 13.1°F-10.5°C 93% Calm Calm -- 30.04 in1017.3 mb - 0.00 in0.0 mm 0.00 in0.0 mm
10:50 PM 14.7°F-9.6°C 13.0°F-10.6°C 93% Calm Calm -- 30.03 in1016.9 mb - 0.00 in0.0 mm 0.00 in0.0 mm
11:00 PM 14.2°F-9.9°C 12.5°F-10.8°C 93% Calm Calm -- 30.03 in1016.9 mb - 0.00 in0.0 mm 0.00 in0.0 mm
11:10 PM 14.5°F-9.7°C 12.8°F-10.7°C 93% Calm Calm -- 30.03 in1016.9 mb - 0.00 in0.0 mm 0.00 in0.0 mm
11:20 PM 14.5°F-9.7°C 12.8°F-10.7°C 93% Calm Calm -- 30.03 in1016.9 mb - 0.00 in0.0 mm 0.00 in0.0 mm
11:30 PM 14.3°F-9.8°C 12.7°F-10.7°C 93% Calm Calm -- 30.03 in1016.9 mb - 0.00 in0.0 mm 0.00 in0.0 mm
11:40 PM 14.2°F-9.9°C 12.5°F-10.8°C 93% Calm Calm -- 30.03 in1016.9 mb - 0.00 in0.0 mm 0.00 in0.0 mm
11:50 PM 13.7°F-10.2°C 12.0°F-11.1°C 93% Calm Calm -- 30.02 in1016.6 mb - 0.00 in0.0 mm 0.00 in0.0 mm